sensor_id;sensor_type;location;lat;lon;timestamp;pressure;altitude;pressure_sealevel;temperature;humidity
74427;BME280;62859;53.906;27.430;2023-04-15T00:01:39;1010.4;;;10.8;44.7
74427;BME280;62859;53.906;27.430;2023-04-15T00:06:35;1010.4;;;10.8;44.7
74427;BME280;62859;53.906;27.430;2023-04-15T00:11:39;1010.5;;;10.8;45
74427;BME280;62859;53.906;27.430;2023-04-15T00:16:19;1010.5;;;10.8;44.6
74427;BME280;62859;53.906;27.430;2023-04-15T00:21:09;1010.5;;;10.8;44.6
74427;BME280;62859;53.906;27.430;2023-04-15T00:26:39;1010.5;;;10.7;44.3
74427;BME280;62859;53.906;27.430;2023-04-15T00:31:45;1010.5;;;10.7;44.5
74427;BME280;62859;53.906;27.430;2023-04-15T00:36:37;1010.5;;;10.7;44.5
74427;BME280;62859;53.906;27.430;2023-04-15T00:41:19;1010.4;;;10.7;44.4
74427;BME280;62859;53.906;27.430;2023-04-15T00:46:13;1010.5;;;10.6;44.5
74427;BME280;62859;53.906;27.430;2023-04-15T00:51:39;1010.5;;;10.7;44.5
74427;BME280;62859;53.906;27.430;2023-04-15T00:56:49;1010.6;;;10.7;44.5
74427;BME280;62859;53.906;27.430;2023-04-15T01:01:39;1010.5;;;10.6;44.4
74427;BME280;62859;53.906;27.430;2023-04-15T01:06:19;1010.6;;;10.5;44.6
74427;BME280;62859;53.906;27.430;2023-04-15T01:11:03;1010.5;;;10.4;44.7
74427;BME280;62859;53.906;27.430;2023-04-15T01:16:39;1010.5;;;10.4;44.8
74427;BME280;62859;53.906;27.430;2023-04-15T01:21:47;1010.5;;;10.4;44.9
74427;BME280;62859;53.906;27.430;2023-04-15T01:26:06;1010.5;;;10.4;44.7
74427;BME280;62859;53.906;27.430;2023-04-15T01:31:19;1010.5;;;10.5;45
74427;BME280;62859;53.906;27.430;2023-04-15T01:36:33;1010.5;;;10.5;44.8
74427;BME280;62859;53.906;27.430;2023-04-15T01:41:25;1010.5;;;10.5;44.9
74427;BME280;62859;53.906;27.430;2023-04-15T01:46:47;1010.5;;;10.6;44.8
74427;BME280;62859;53.906;27.430;2023-04-15T01:51:37;1010.5;;;10.6;44.9
74427;BME280;62859;53.906;27.430;2023-04-15T01:56:07;1010.6;;;10.6;44.8
74427;BME280;62859;53.906;27.430;2023-04-15T02:01:11;1010.6;;;10.6;44.8
74427;BME280;62859;53.906;27.430;2023-04-15T02:06:17;1010.5;;;10.6;44.6
74427;BME280;62859;53.906;27.430;2023-04-15T02:11:43;1010.5;;;10.6;44.7
74427;BME280;62859;53.906;27.430;2023-04-15T02:16:37;1010.5;;;10.6;44.8
74427;BME280;62859;53.906;27.430;2023-04-15T02:21:07;1010.5;;;10.6;44.9
74427;BME280;62859;53.906;27.430;2023-04-15T02:26:11;1010.5;;;10.6;45
74427;BME280;62859;53.906;27.430;2023-04-15T02:31:04;1010.5;;;10.7;45
74427;BME280;62859;53.906;27.430;2023-04-15T02:36:45;1010.5;;;10.7;45.1
74427;BME280;62859;53.906;27.430;2023-04-15T02:41:37;1010.5;;;10.7;45.1
74427;BME280;62859;53.906;27.430;2023-04-15T02:46:17;1010.5;;;10.7;45
74427;BME280;62859;53.906;27.430;2023-04-15T02:51:47;1010.5;;;10.7;45.2
74427;BME280;62859;53.906;27.430;2023-04-15T02:56:11;1010.5;;;10.6;45.4
74427;BME280;62859;53.906;27.430;2023-04-15T03:01:45;1010.6;;;10.5;45.6
74427;BME280;62859;53.906;27.430;2023-04-15T03:06:45;1010.6;;;10.5;45.8
74427;BME280;62859;53.906;27.430;2023-04-15T03:11:19;1010.6;;;10.6;45.8
74427;BME280;62859;53.906;27.430;2023-04-15T03:16:11;1010.7;;;10.6;46
74427;BME280;62859;53.906;27.430;2023-04-15T03:21:11;1010.7;;;10.6;46
74427;BME280;62859;53.906;27.430;2023-04-15T03:26:45;1010.7;;;10.6;46
74427;BME280;62859;53.906;27.430;2023-04-15T03:31:13;1010.7;;;10.7;46.2
74427;BME280;62859;53.906;27.430;2023-04-15T03:36:11;1010.8;;;10.6;46.2
74427;BME280;62859;53.906;27.430;2023-04-15T03:41:03;1010.8;;;10.5;46.3
74427;BME280;62859;53.906;27.430;2023-04-15T03:46:03;1010.8;;;10.4;46.4
74427;BME280;62859;53.906;27.430;2023-04-15T03:51:45;1010.8;;;10.4;46.6
74427;BME280;62859;53.906;27.430;2023-04-15T03:56:25;1010.9;;;10.4;46.7
74427;BME280;62859;53.906;27.430;2023-04-15T04:01:17;1010.9;;;10.3;46.7
74427;BME280;62859;53.906;27.430;2023-04-15T04:06:03;1010.8;;;10.3;46.8
74427;BME280;62859;53.906;27.430;2023-04-15T04:11:11;1010.8;;;10.3;46.7
74427;BME280;62859;53.906;27.430;2023-04-15T04:16:45;1010.9;;;10.3;46.7
74427;BME280;62859;53.906;27.430;2023-04-15T04:21:37;1010.9;;;10.3;46.6
74427;BME280;62859;53.906;27.430;2023-04-15T04:26:17;1010.9;;;10.3;46.4
74427;BME280;62859;53.906;27.430;2023-04-15T04:31:03;1010.9;;;10.3;46.4
74427;BME280;62859;53.906;27.430;2023-04-15T04:36:03;1010.9;;;10.3;46.4
74427;BME280;62859;53.906;27.430;2023-04-15T04:41:37;1010.9;;;10.3;46.3
74427;BME280;62859;53.906;27.430;2023-04-15T04:46:37;1010.9;;;10.2;46.6
74427;BME280;62859;53.906;27.430;2023-04-15T04:51:03;1010.9;;;10.3;46.6
74427;BME280;62859;53.906;27.430;2023-04-15T04:56:11;1010.9;;;10.2;46.6
74427;BME280;62859;53.906;27.430;2023-04-15T05:01:17;1010.9;;;10.1;46.7
74427;BME280;62859;53.906;27.430;2023-04-15T05:06:47;1011;;;10.1;46.9
74427;BME280;62859;53.906;27.430;2023-04-15T05:11:31;1011.1;;;10.1;46.9
74427;BME280;62859;53.906;27.430;2023-04-15T05:16:25;1011.1;;;10.1;46.8
74427;BME280;62859;53.906;27.430;2023-04-15T05:21:03;1011.1;;;10.1;46.8
74427;BME280;62859;53.906;27.430;2023-04-15T05:26:17;1011.2;;;10.1;46.6
74427;BME280;62859;53.906;27.430;2023-04-15T05:31:47;1011.3;;;10.2;46.6
74427;BME280;62859;53.906;27.430;2023-04-15T05:36:37;1011.2;;;10.1;46.5
74427;BME280;62859;53.906;27.430;2023-04-15T05:41:11;1011.3;;;10.1;46.6
74427;BME280;62859;53.906;27.430;2023-04-15T05:46:11;1011.3;;;10.1;46.6
74427;BME280;62859;53.906;27.430;2023-04-15T05:51:17;1011.4;;;10.1;46.2
74427;BME280;62859;53.906;27.430;2023-04-15T05:56:25;1011.4;;;10.1;46
74427;BME280;62859;53.906;27.430;2023-04-15T06:01:23;1011.4;;;10.1;45.9
74427;BME280;62859;53.906;27.430;2023-04-15T06:06:31;1011.5;;;10.2;45.7
74427;BME280;62859;53.906;27.430;2023-04-15T06:11:03;1011.5;;;10.3;45.6
74427;BME280;62859;53.906;27.430;2023-04-15T06:16:09;1011.5;;;10.3;45.1
74427;BME280;62859;53.906;27.430;2023-04-15T06:21:29;1011.5;;;10.3;44.9
74427;BME280;62859;53.906;27.430;2023-04-15T06:26:23;1011.5;;;10.3;44.7
74427;BME280;62859;53.906;27.430;2023-04-15T06:31:29;1011.5;;;10.4;44.4
74427;BME280;62859;53.906;27.430;2023-04-15T06:36:21;1011.5;;;10.4;44
74427;BME280;62859;53.906;27.430;2023-04-15T06:41:45;1011.6;;;10.4;43.6
74427;BME280;62859;53.906;27.430;2023-04-15T06:46:37;1011.6;;;10.3;43.8
74427;BME280;62859;53.906;27.430;2023-04-15T06:51:23;1011.7;;;10.4;43.6
74427;BME280;62859;53.906;27.430;2023-04-15T06:56:29;1011.7;;;10.5;43.5
74427;BME280;62859;53.906;27.430;2023-04-15T07:01:23;1011.8;;;10.5;43.1
74427;BME280;62859;53.906;27.430;2023-04-15T07:06:47;1011.8;;;10.5;42.7
74427;BME280;62859;53.906;27.430;2023-04-15T07:11:33;1011.7;;;10.6;42.8
74427;BME280;62859;53.906;27.430;2023-04-15T07:16:15;1011.7;;;10.5;42.5
74427;BME280;62859;53.906;27.430;2023-04-15T07:21:33;1011.7;;;10.5;42.2
74427;BME280;62859;53.906;27.430;2023-04-15T07:26:23;1011.8;;;10.5;42.1
74427;BME280;62859;53.906;27.430;2023-04-15T07:31:47;1011.7;;;10.5;41.8
74427;BME280;62859;53.906;27.430;2023-04-15T07:36:31;1011.7;;;10.6;41.7
74427;BME280;62859;53.906;27.430;2023-04-15T07:41:15;1011.8;;;10.6;41.4
74427;BME280;62859;53.906;27.430;2023-04-15T07:46:29;1011.8;;;10.7;41.2
74427;BME280;62859;53.906;27.430;2023-04-15T07:51:03;1011.9;;;10.7;40.6
74427;BME280;62859;53.906;27.430;2023-04-15T07:56:45;1011.9;;;10.7;40.5
74427;BME280;62859;53.906;27.430;2023-04-15T08:01:33;1012;;;10.5;40.2
74427;BME280;62859;53.906;27.430;2023-04-15T08:06:47;1011.9;;;10.5;40.3
74427;BME280;62859;53.906;27.430;2023-04-15T08:11:33;1011.9;;;10.5;40.2
74427;BME280;62859;53.906;27.430;2023-04-15T08:16:16;1012;;;10.6;40.4
74427;BME280;62859;53.906;27.430;2023-04-15T08:21:45;1011.9;;;10.7;40.5
74427;BME280;62859;53.906;27.430;2023-04-15T08:26:31;1011.8;;;10.9;40.2
74427;BME280;62859;53.906;27.430;2023-04-15T08:31:25;1011.8;;;11;40.1
74427;BME280;62859;53.906;27.430;2023-04-15T08:36:25;1011.8;;;11.2;39.5
74427;BME280;62859;53.906;27.430;2023-04-15T08:41:06;1011.8;;;11.3;38.9
74427;BME280;62859;53.906;27.430;2023-04-15T08:46:45;1011.8;;;11.4;38.5
74427;BME280;62859;53.906;27.430;2023-04-15T08:51:31;1011.8;;;11.4;38.1
74427;BME280;62859;53.906;27.430;2023-04-15T08:56:03;1011.9;;;11.4;38.4
74427;BME280;62859;53.906;27.430;2023-04-15T09:01:25;1012;;;11.2;38.3
74427;BME280;62859;53.906;27.430;2023-04-15T09:06:04;1012;;;11.1;38.6
74427;BME280;62859;53.906;27.430;2023-04-15T09:11:47;1012;;;11.1;38.4
74427;BME280;62859;53.906;27.430;2023-04-15T09:16:31;1011.9;;;11;38.4
74427;BME280;62859;53.906;27.430;2023-04-15T09:21:04;1012;;;11;38.5
74427;BME280;62859;53.906;27.430;2023-04-15T09:26:32;1012;;;11;38.5
74427;BME280;62859;53.906;27.430;2023-04-15T09:31:15;1012;;;10.9;38.6
74427;BME280;62859;53.906;27.430;2023-04-15T09:36:50;1012;;;10.8;38.6
74427;BME280;62859;53.906;27.430;2023-04-15T09:41:33;1012.1;;;10.8;38.8
74427;BME280;62859;53.906;27.430;2023-04-15T09:46:11;1012.1;;;10.7;38.9
74427;BME280;62859;53.906;27.430;2023-04-15T09:51:33;1012.1;;;10.7;38.9
74427;BME280;62859;53.906;27.430;2023-04-15T09:56:03;1012.1;;;10.6;39.1
74427;BME280;62859;53.906;27.430;2023-04-15T10:01:47;1012.3;;;10.5;39.2
74427;BME280;62859;53.906;27.430;2023-04-15T10:06:03;1012.2;;;10.5;39.3
74427;BME280;62859;53.906;27.430;2023-04-15T10:11:11;1012.2;;;10.4;39.6
74427;BME280;62859;53.906;27.430;2023-04-15T10:16:43;1012.2;;;10.5;39.3
74427;BME280;62859;53.906;27.430;2023-04-15T10:21:11;1012.2;;;10.5;39.3
74427;BME280;62859;53.906;27.430;2023-04-15T10:26:13;1012.2;;;10.5;39.3
74427;BME280;62859;53.906;27.430;2023-04-15T10:31:03;1012.2;;;10.5;39.2
74427;BME280;62859;53.906;27.430;2023-04-15T10:36:15;1012.2;;;10.6;39.1
74427;BME280;62859;53.906;27.430;2023-04-15T10:41:45;1012.1;;;10.6;38.9
74427;BME280;62859;53.906;27.430;2023-04-15T10:46:03;1012.1;;;10.6;38.8
74427;BME280;62859;53.906;27.430;2023-04-15T10:51:31;1012.1;;;10.6;38.9
74427;BME280;62859;53.906;27.430;2023-04-15T10:56:11;1012.1;;;10.7;38.6
74427;BME280;62859;53.906;27.430;2023-04-15T11:01:03;1012.1;;;10.8;38.4
74427;BME280;62859;53.906;27.430;2023-04-15T11:06:45;1012.1;;;10.8;38.4
74427;BME280;62859;53.906;27.430;2023-04-15T11:11:03;1012.2;;;10.8;38.2
74427;BME280;62859;53.906;27.430;2023-04-15T11:16:32;1012.2;;;10.8;37.9
74427;BME280;62859;53.906;27.430;2023-04-15T11:21:05;1012.1;;;10.8;37.6
74427;BME280;62859;53.906;27.430;2023-04-15T11:26:24;1012.1;;;10.9;37.3
74427;BME280;62859;53.906;27.430;2023-04-15T11:31:47;1012.1;;;10.9;37.3
74427;BME280;62859;53.906;27.430;2023-04-15T11:36:11;1012;;;11;37.2
74427;BME280;62859;53.906;27.430;2023-04-15T11:41:34;1012;;;11;36.8
74427;BME280;62859;53.906;27.430;2023-04-15T11:46:03;1012.1;;;11.1;36.9
74427;BME280;62859;53.906;27.430;2023-04-15T11:51:04;1012.1;;;11.2;36.5
74427;BME280;62859;53.906;27.430;2023-04-15T11:56:49;1012;;;11.3;36.3
74427;BME280;62859;53.906;27.430;2023-04-15T12:01:11;1012;;;11.3;36.1
74427;BME280;62859;53.906;27.430;2023-04-15T12:06:32;1012;;;11.3;36.2
74427;BME280;62859;53.906;27.430;2023-04-15T12:11:11;1012;;;11.3;36.1
74427;BME280;62859;53.906;27.430;2023-04-15T12:16:15;1012;;;11.2;35.8
74427;BME280;62859;53.906;27.430;2023-04-15T12:21:44;1012.1;;;11.1;35.9
74427;BME280;62859;53.906;27.430;2023-04-15T12:26:17;1012;;;11.2;35.9
74427;BME280;62859;53.906;27.430;2023-04-15T12:31:29;1012;;;11.2;35.9
74427;BME280;62859;53.906;27.430;2023-04-15T12:36:02;1012;;;11.1;35.7
74427;BME280;62859;53.906;27.430;2023-04-15T12:41:21;1012;;;11.1;36
74427;BME280;62859;53.906;27.430;2023-04-15T12:46:44;1011.9;;;11.2;36
74427;BME280;62859;53.906;27.430;2023-04-15T12:51:09;1012;;;11.2;35.9
74427;BME280;62859;53.906;27.430;2023-04-15T12:56:29;1011.8;;;11.2;35.7
74427;BME280;62859;53.906;27.430;2023-04-15T13:01:09;1011.9;;;11.1;35.6
74427;BME280;62859;53.906;27.430;2023-04-15T13:06:21;1011.9;;;11.1;35.5
74427;BME280;62859;53.906;27.430;2023-04-15T13:11:43;1011.9;;;11.1;35.8
74427;BME280;62859;53.906;27.430;2023-04-15T13:16:01;1011.9;;;11.1;35.5
74427;BME280;62859;53.906;27.430;2023-04-15T13:21:31;1011.8;;;11;35.3
74427;BME280;62859;53.906;27.430;2023-04-15T13:26:21;1011.9;;;10.9;35.6
74427;BME280;62859;53.906;27.430;2023-04-15T13:31:01;1012;;;11;35.6
74427;BME280;62859;53.906;27.430;2023-04-15T13:36:45;1012;;;11;35.5
74427;BME280;62859;53.906;27.430;2023-04-15T13:41:01;1012.1;;;11;35
74427;BME280;62859;53.906;27.430;2023-04-15T13:46:29;1012.1;;;11;34.7
74427;BME280;62859;53.906;27.430;2023-04-15T13:51:29;1012.1;;;11;34.7
74427;BME280;62859;53.906;27.430;2023-04-15T13:56:21;1012.2;;;11.1;34.7
74427;BME280;62859;53.906;27.430;2023-04-15T14:01:43;1012.2;;;11;34.5
74427;BME280;62859;53.906;27.430;2023-04-15T14:06:01;1012.2;;;11;34.5
74427;BME280;62859;53.906;27.430;2023-04-15T14:11:38;1012.3;;;10.9;34.4
74427;BME280;62859;53.906;27.430;2023-04-15T14:16:09;1012.3;;;10.7;34.6
74427;BME280;62859;53.906;27.430;2023-04-15T14:21:21;1012.3;;;10.7;35.1
74427;BME280;62859;53.906;27.430;2023-04-15T14:26:45;1012.2;;;10.7;35
74427;BME280;62859;53.906;27.430;2023-04-15T14:31:21;1012.3;;;10.6;34.9
74427;BME280;62859;53.906;27.430;2023-04-15T14:36:31;1012.3;;;10.6;35.1
74427;BME280;62859;53.906;27.430;2023-04-15T14:41:01;1012.3;;;10.6;35.2
74427;BME280;62859;53.906;27.430;2023-04-15T14:46:10;1012.3;;;10.6;35.2
74427;BME280;62859;53.906;27.430;2023-04-15T14:51:43;1012.3;;;10.6;35.2
74427;BME280;62859;53.906;27.430;2023-04-15T14:56:21;1012.4;;;10.6;34.9
74427;BME280;62859;53.906;27.430;2023-04-15T15:01:29;1012.4;;;10.5;34.8
74427;BME280;62859;53.906;27.430;2023-04-15T15:06:01;1012.4;;;10.3;35.2
74427;BME280;62859;53.906;27.430;2023-04-15T15:11:22;1012.6;;;10.3;35.4
74427;BME280;62859;53.906;27.430;2023-04-15T15:16:29;1012.6;;;10.3;35.6
74427;BME280;62859;53.906;27.430;2023-04-15T15:21:21;1012.6;;;10.3;36.1
74427;BME280;62859;53.906;27.430;2023-04-15T15:26:29;1012.6;;;10.3;36.5
74427;BME280;62859;53.906;27.430;2023-04-15T15:31:09;1012.6;;;10.3;36.9
74427;BME280;62859;53.906;27.430;2023-04-15T15:36:21;1012.7;;;10.1;38
74427;BME280;62859;53.906;27.430;2023-04-15T15:41:41;1012.7;;;10;38.5
74427;BME280;62859;53.906;27.430;2023-04-15T15:46:19;1012.7;;;10;38.9
74427;BME280;62859;53.906;27.430;2023-04-15T15:51:27;1012.8;;;9.8;39.4
74427;BME280;62859;53.906;27.430;2023-04-15T15:56:09;1012.7;;;9.8;39.8
74427;BME280;62859;53.906;27.430;2023-04-15T16:01:21;1012.7;;;9.7;39.8
74427;BME280;62859;53.906;27.430;2023-04-15T16:06:41;1012.7;;;9.7;39.9
74427;BME280;62859;53.906;27.430;2023-04-15T16:11:13;1012.7;;;9.7;40
74427;BME280;62859;53.906;27.430;2023-04-15T16:16:23;1012.8;;;9.6;40
74427;BME280;62859;53.906;27.430;2023-04-15T16:21:21;1012.9;;;9.5;40.1
74427;BME280;62859;53.906;27.430;2023-04-15T16:26:35;1012.9;;;9.4;40.6
74427;BME280;62859;53.906;27.430;2023-04-15T16:31:45;1012.9;;;9.4;40.8
74427;BME280;62859;53.906;27.430;2023-04-15T16:36:21;1013;;;9.3;40.7
74427;BME280;62859;53.906;27.430;2023-04-15T16:41:19;1013;;;9.3;40.8
74427;BME280;62859;53.906;27.430;2023-04-15T16:46:01;1013;;;9.3;40.8
74427;BME280;62859;53.906;27.430;2023-04-15T16:51:35;1013;;;9.4;40.5
74427;BME280;62859;53.906;27.430;2023-04-15T16:56:45;1013;;;9.3;40.4
74427;BME280;62859;53.906;27.430;2023-04-15T17:01:22;1013.1;;;9.4;40.2
74427;BME280;62859;53.906;27.430;2023-04-15T17:06:29;1013.1;;;9.4;40.1
74427;BME280;62859;53.906;27.430;2023-04-15T17:11:01;1013.2;;;9.4;39.7
74427;BME280;62859;53.906;27.430;2023-04-15T17:16:13;1013.3;;;9.5;39.6
74427;BME280;62859;53.906;27.430;2023-04-15T17:21:43;1013.3;;;9.4;39.9
74427;BME280;62859;53.906;27.430;2023-04-15T17:26:21;1013.4;;;9.4;40.1
74427;BME280;62859;53.906;27.430;2023-04-15T17:31:31;1013.5;;;9.4;40.5
74427;BME280;62859;53.906;27.430;2023-04-15T17:36:09;1013.8;;;9.3;41.2
74427;BME280;62859;53.906;27.430;2023-04-15T17:41:24;1013.7;;;9.1;41.1
74427;BME280;62859;53.906;27.430;2023-04-15T17:46:43;1013.7;;;9.1;41.4
74427;BME280;62859;53.906;27.430;2023-04-15T17:51:21;1013.7;;;9.2;41.4
74427;BME280;62859;53.906;27.430;2023-04-15T17:56:29;1013.8;;;9.1;41.5
74427;BME280;62859;53.906;27.430;2023-04-15T18:01:13;1013.9;;;8.9;41.7
74427;BME280;62859;53.906;27.430;2023-04-15T18:06:02;1013.9;;;8.8;42
74427;BME280;62859;53.906;27.430;2023-04-15T18:11:43;1013.8;;;8.7;42.3
74427;BME280;62859;53.906;27.430;2023-04-15T18:16:21;1013.8;;;8.7;42.6
74427;BME280;62859;53.906;27.430;2023-04-15T18:21:30;1013.8;;;8.7;42.6
74427;BME280;62859;53.906;27.430;2023-04-15T18:26:01;1013.8;;;8.7;42.3
74427;BME280;62859;53.906;27.430;2023-04-15T18:31:09;1013.8;;;8.6;41.9
74427;BME280;62859;53.906;27.430;2023-04-15T18:36:44;1013.8;;;8.5;41.7
74427;BME280;62859;53.906;27.430;2023-04-15T18:41:22;1013.8;;;8.5;41.6
74427;BME280;62859;53.906;27.430;2023-04-15T18:46:31;1013.8;;;8.5;41.6
74427;BME280;62859;53.906;27.430;2023-04-15T18:51:21;1013.8;;;8.6;41.5
74427;BME280;62859;53.906;27.430;2023-04-15T18:56:04;1013.8;;;8.5;41.4
74427;BME280;62859;53.906;27.430;2023-04-15T19:01:43;1013.8;;;8.5;41.3
74427;BME280;62859;53.906;27.430;2023-04-15T19:06:22;1013.8;;;8.5;41.4
74427;BME280;62859;53.906;27.430;2023-04-15T19:11:30;1013.8;;;8.5;41.1
74427;BME280;62859;53.906;27.430;2023-04-15T19:16:10;1013.9;;;8.5;41
74427;BME280;62859;53.906;27.430;2023-04-15T19:21:30;1014;;;8.4;41.3
74427;BME280;62859;53.906;27.430;2023-04-15T19:26:46;1014.2;;;8.4;42.3
74427;BME280;62859;53.906;27.430;2023-04-15T19:31:02;1014.2;;;8.1;46.2
74427;BME280;62859;53.906;27.430;2023-04-15T19:36:04;1014;;;7.8;47.3
74427;BME280;62859;53.906;27.430;2023-04-15T19:41:02;1014;;;7.8;47.6
74427;BME280;62859;53.906;27.430;2023-04-15T19:46:30;1013.9;;;7.8;47.7
74427;BME280;62859;53.906;27.430;2023-04-15T19:51:44;1013.8;;;7.7;47.6
74427;BME280;62859;53.906;27.430;2023-04-15T19:56:10;1013.8;;;7.7;47.8
74427;BME280;62859;53.906;27.430;2023-04-15T20:01:30;1013.8;;;7.8;47.4
74427;BME280;62859;53.906;27.430;2023-04-15T20:06:10;1013.7;;;7.9;47
74427;BME280;62859;53.906;27.430;2023-04-15T20:11:30;1013.8;;;7.9;46.6
74427;BME280;62859;53.906;27.430;2023-04-15T20:16:44;1013.7;;;8;46.1
74427;BME280;62859;53.906;27.430;2023-04-15T20:21:22;1013.7;;;8;45.3
74427;BME280;62859;53.906;27.430;2023-04-15T20:26:30;1013.6;;;8.1;45.3
74427;BME280;62859;53.906;27.430;2023-04-15T20:31:10;1013.6;;;8.1;45.3
74427;BME280;62859;53.906;27.430;2023-04-15T20:36:30;1013.6;;;8;45.4
74427;BME280;62859;53.906;27.430;2023-04-15T20:41:44;1013.6;;;7.9;46
74427;BME280;62859;53.906;27.430;2023-04-15T20:46:22;1013.5;;;8;46.3
74427;BME280;62859;53.906;27.430;2023-04-15T20:51:30;1013.5;;;8;46.2
74427;BME280;62859;53.906;27.430;2023-04-15T20:56:14;1013.4;;;8;46.1
74427;BME280;62859;53.906;27.430;2023-04-15T21:01:32;1013.4;;;8.1;46
74427;BME280;62859;53.906;27.430;2023-04-15T21:06:44;1013.3;;;8.2;45.7
74427;BME280;62859;53.906;27.430;2023-04-15T21:11:02;1013.4;;;8.4;45.2
74427;BME280;62859;53.906;27.430;2023-04-15T21:16:18;1013.4;;;8.3;44.4
74427;BME280;62859;53.906;27.430;2023-04-15T21:21:10;1013.5;;;8.3;45.2
74427;BME280;62859;53.906;27.430;2023-04-15T21:26:32;1013.5;;;8.1;46.2
74427;BME280;62859;53.906;27.430;2023-04-15T21:31:46;1013.6;;;8;47.7
74427;BME280;62859;53.906;27.430;2023-04-15T21:36:02;1013.7;;;7.9;49.5
74427;BME280;62859;53.906;27.430;2023-04-15T21:41:32;1013.7;;;7.8;51.3
74427;BME280;62859;53.906;27.430;2023-04-15T21:46:02;1013.7;;;7.6;53.5
74427;BME280;62859;53.906;27.430;2023-04-15T21:51:30;1013.7;;;7.4;54.9
74427;BME280;62859;53.906;27.430;2023-04-15T21:56:44;1013.7;;;7.2;55.8
74427;BME280;62859;53.906;27.430;2023-04-15T22:01:02;1013.6;;;7.1;56.7
74427;BME280;62859;53.906;27.430;2023-04-15T22:06:10;1013.5;;;6.9;57.6
74427;BME280;62859;53.906;27.430;2023-04-15T22:11:02;1013.6;;;6.8;58
74427;BME280;62859;53.906;27.430;2023-04-15T22:16:30;1013.6;;;6.7;58.8
74427;BME280;62859;53.906;27.430;2023-04-15T22:21:44;1013.6;;;6.7;59.1
74427;BME280;62859;53.906;27.430;2023-04-15T22:26:22;1013.6;;;6.6;59.4
74427;BME280;62859;53.906;27.430;2023-04-15T22:31:30;1013.6;;;6.7;59.8
74427;BME280;62859;53.906;27.430;2023-04-15T22:36:20;1013.6;;;6.8;59.6
74427;BME280;62859;53.906;27.430;2023-04-15T22:41:30;1013.5;;;6.7;59.8
74427;BME280;62859;53.906;27.430;2023-04-15T22:46:46;1013.5;;;6.6;60
74427;BME280;62859;53.906;27.430;2023-04-15T22:51:22;1013.4;;;6.6;60.1
74427;BME280;62859;53.906;27.430;2023-04-15T22:56:22;1013.5;;;6.6;60
74427;BME280;62859;53.906;27.430;2023-04-15T23:01:02;1013.5;;;6.5;60.2
74427;BME280;62859;53.906;27.430;2023-04-15T23:06:30;1013.4;;;6.5;60.4
74427;BME280;62859;53.906;27.430;2023-04-15T23:11:02;1013.4;;;6.4;60.5
74427;BME280;62859;53.906;27.430;2023-04-15T23:16:46;1013.4;;;6.3;60.9
74427;BME280;62859;53.906;27.430;2023-04-15T23:21:28;1013.4;;;6.3;61.6
74427;BME280;62859;53.906;27.430;2023-04-15T23:26:08;1013.4;;;6.2;62
74427;BME280;62859;53.906;27.430;2023-04-15T23:31:30;1013.4;;;6.1;62.4
74427;BME280;62859;53.906;27.430;2023-04-15T23:36:08;1013.4;;;6.1;62.6
74427;BME280;62859;53.906;27.430;2023-04-15T23:41:40;1013.4;;;6.2;62.6
74427;BME280;62859;53.906;27.430;2023-04-15T23:46:02;1013.4;;;6.3;62.6
74427;BME280;62859;53.906;27.430;2023-04-15T23:51:20;1013.4;;;6.2;62.7
74427;BME280;62859;53.906;27.430;2023-04-15T23:56:42;1013.4;;;6;63.5
